sensor_id;sensor_type;location;lat;lon;timestamp;pressure;altitude;pressure_sealevel;temperature;humidity
52249;BME280;38541;48.130;8.378;2023-04-24T00:01:03;91809.59;;;9.76;65.31
52249;BME280;38541;48.130;8.378;2023-04-24T00:03:33;91815.88;;;9.75;65.78
52249;BME280;38541;48.130;8.378;2023-04-24T00:06:01;91804.31;;;9.81;65.21
52249;BME280;38541;48.130;8.378;2023-04-24T00:08:28;91810.97;;;9.92;65.32
52249;BME280;38541;48.130;8.378;2023-04-24T00:10:55;91804.72;;;9.88;65.42
52249;BME280;38541;48.130;8.378;2023-04-24T00:13:21;91808.97;;;9.84;65.17
52249;BME280;38541;48.130;8.378;2023-04-24T00:15:48;91806.47;;;9.74;65.84
52249;BME280;38541;48.130;8.378;2023-04-24T00:18:14;91807.97;;;9.80;65.23
52249;BME280;38541;48.130;8.378;2023-04-24T00:20:41;91802.56;;;9.71;65.88
52249;BME280;38541;48.130;8.378;2023-04-24T00:23:07;91808.47;;;9.82;65.72
52249;BME280;38541;48.130;8.378;2023-04-24T00:25:34;91806.22;;;9.94;65.32
52249;BME280;38541;48.130;8.378;2023-04-24T00:28:00;91802.94;;;9.83;65.75
52249;BME280;38541;48.130;8.378;2023-04-24T00:30:27;91804.66;;;9.93;65.54
52249;BME280;38541;48.130;8.378;2023-04-24T00:32:54;91816.41;;;9.77;65.73
52249;BME280;38541;48.130;8.378;2023-04-24T00:35:22;91812.50;;;9.50;66.84
52249;BME280;38541;48.130;8.378;2023-04-24T00:37:49;91806.69;;;9.53;67.24
52249;BME280;38541;48.130;8.378;2023-04-24T00:40:16;91802.66;;;9.61;67.04
52249;BME280;38541;48.130;8.378;2023-04-24T00:42:43;91795.97;;;9.74;66.39
52249;BME280;38541;48.130;8.378;2023-04-24T00:45:11;91791.84;;;9.67;66.76
52249;BME280;38541;48.130;8.378;2023-04-24T00:47:38;91794.22;;;9.69;67.17
52249;BME280;38541;48.130;8.378;2023-04-24T00:50:06;91792.28;;;9.75;66.68
52249;BME280;38541;48.130;8.378;2023-04-24T00:52:33;91799.16;;;9.70;66.50
52249;BME280;38541;48.130;8.378;2023-04-24T00:55:00;91796.31;;;9.67;66.90
52249;BME280;38541;48.130;8.378;2023-04-24T00:57:26;91796.16;;;9.58;67.15
52249;BME280;38541;48.130;8.378;2023-04-24T00:59:53;91793.53;;;9.58;67.27
52249;BME280;38541;48.130;8.378;2023-04-24T01:02:20;91801.22;;;9.49;67.63
52249;BME280;38541;48.130;8.378;2023-04-24T01:04:49;91794.44;;;9.48;67.46
52249;BME280;38541;48.130;8.378;2023-04-24T01:07:19;91788.22;;;9.39;68.12
52249;BME280;38541;48.130;8.378;2023-04-24T01:09:48;91792.16;;;9.36;68.00
52249;BME280;38541;48.130;8.378;2023-04-24T01:12:15;91788.72;;;9.41;68.25
52249;BME280;38541;48.130;8.378;2023-04-24T01:14:44;91790.84;;;9.39;68.30
52249;BME280;38541;48.130;8.378;2023-04-24T01:17:10;91782.16;;;9.44;68.34
52249;BME280;38541;48.130;8.378;2023-04-24T01:19:37;91785.59;;;9.39;67.87
52249;BME280;38541;48.130;8.378;2023-04-24T01:22:10;91785.31;;;9.40;68.38
52249;BME280;38541;48.130;8.378;2023-04-24T01:24:38;91779.47;;;9.49;68.11
52249;BME280;38541;48.130;8.378;2023-04-24T01:27:04;91787.88;;;9.46;68.08
52249;BME280;38541;48.130;8.378;2023-04-24T01:29:31;91787.97;;;9.35;68.62
52249;BME280;38541;48.130;8.378;2023-04-24T01:31:58;91788.25;;;9.09;68.82
52249;BME280;38541;48.130;8.378;2023-04-24T01:34:25;91792.34;;;9.21;69.36
52249;BME280;38541;48.130;8.378;2023-04-24T01:36:52;91797.91;;;9.09;69.70
52249;BME280;38541;48.130;8.378;2023-04-24T01:39:18;91780.31;;;9.14;69.39
52249;BME280;38541;48.130;8.378;2023-04-24T01:41:46;91780.81;;;9.17;70.06
52249;BME280;38541;48.130;8.378;2023-04-24T01:44:13;91779.75;;;9.18;69.45
52249;BME280;38541;48.130;8.378;2023-04-24T01:46:40;91787.13;;;9.16;69.91
52249;BME280;38541;48.130;8.378;2023-04-24T01:49:07;91789.88;;;9.00;69.75
52249;BME280;38541;48.130;8.378;2023-04-24T01:51:33;91784.63;;;9.00;70.43
52249;BME280;38541;48.130;8.378;2023-04-24T01:54:02;91786.13;;;9.11;70.13
52249;BME280;38541;48.130;8.378;2023-04-24T01:56:29;91798.72;;;9.09;70.20
52249;BME280;38541;48.130;8.378;2023-04-24T01:58:59;91786.69;;;9.08;70.29
52249;BME280;38541;48.130;8.378;2023-04-24T02:01:26;91788.31;;;8.99;70.10
52249;BME280;38541;48.130;8.378;2023-04-24T02:03:53;91793.34;;;8.95;70.44
52249;BME280;38541;48.130;8.378;2023-04-24T02:06:20;91793.59;;;8.94;70.28
52249;BME280;38541;48.130;8.378;2023-04-24T02:08:46;91788.66;;;8.92;71.36
52249;BME280;38541;48.130;8.378;2023-04-24T02:11:13;91789.97;;;8.90;72.00
52249;BME280;38541;48.130;8.378;2023-04-24T02:13:39;91790.41;;;9.02;72.20
52249;BME280;38541;48.130;8.378;2023-04-24T02:16:06;91778.06;;;9.03;71.84
52249;BME280;38541;48.130;8.378;2023-04-24T02:18:32;91770.91;;;9.13;72.15
52249;BME280;38541;48.130;8.378;2023-04-24T02:20:58;91781.19;;;9.05;71.29
52249;BME280;38541;48.130;8.378;2023-04-24T02:23:25;91784.78;;;8.84;72.32
52249;BME280;38541;48.130;8.378;2023-04-24T02:25:53;91789.38;;;8.98;73.44
52249;BME280;38541;48.130;8.378;2023-04-24T02:28:19;91794.59;;;8.98;72.42
52249;BME280;38541;48.130;8.378;2023-04-24T02:30:46;91794.41;;;8.94;71.88
52249;BME280;38541;48.130;8.378;2023-04-24T02:33:12;91793.09;;;8.92;72.41
52249;BME280;38541;48.130;8.378;2023-04-24T02:35:40;91794.94;;;8.91;72.53
52249;BME280;38541;48.130;8.378;2023-04-24T02:38:07;91779.50;;;8.90;72.33
52249;BME280;38541;48.130;8.378;2023-04-24T02:40:35;91786.84;;;8.88;72.42
52249;BME280;38541;48.130;8.378;2023-04-24T02:43:02;91783.69;;;8.91;72.18
52249;BME280;38541;48.130;8.378;2023-04-24T02:45:29;91782.25;;;8.74;72.63
52249;BME280;38541;48.130;8.378;2023-04-24T02:47:55;91788.41;;;8.89;73.01
52249;BME280;38541;48.130;8.378;2023-04-24T02:50:22;91777.38;;;8.92;72.19
52249;BME280;38541;48.130;8.378;2023-04-24T02:52:49;91786.75;;;8.98;72.27
52249;BME280;38541;48.130;8.378;2023-04-24T02:55:16;91783.22;;;8.83;73.00
52249;BME280;38541;48.130;8.378;2023-04-24T02:57:42;91788.41;;;8.89;73.15
52249;BME280;38541;48.130;8.378;2023-04-24T03:00:09;91791.59;;;8.85;74.19
52249;BME280;38541;48.130;8.378;2023-04-24T03:02:36;91781.63;;;8.88;74.26
52249;BME280;38541;48.130;8.378;2023-04-24T03:05:03;91778.19;;;8.92;74.18
52249;BME280;38541;48.130;8.378;2023-04-24T03:07:30;91785.16;;;9.02;74.01
52249;BME280;38541;48.130;8.378;2023-04-24T03:09:58;91778.03;;;9.08;73.87
52249;BME280;38541;48.130;8.378;2023-04-24T03:12:25;91778.31;;;9.06;73.72
52249;BME280;38541;48.130;8.378;2023-04-24T03:14:52;91780.44;;;9.04;73.47
52249;BME280;38541;48.130;8.378;2023-04-24T03:17:19;91785.75;;;8.94;73.12
52249;BME280;38541;48.130;8.378;2023-04-24T03:19:46;91783.69;;;8.91;73.79
52249;BME280;38541;48.130;8.378;2023-04-24T03:22:12;91773.63;;;8.74;73.17
52249;BME280;38541;48.130;8.378;2023-04-24T03:24:40;91770.72;;;8.75;73.36
52249;BME280;38541;48.130;8.378;2023-04-24T03:27:06;91774.34;;;8.79;73.65
52249;BME280;38541;48.130;8.378;2023-04-24T03:29:56;91768.78;;;8.86;73.61
52249;BME280;38541;48.130;8.378;2023-04-24T03:32:30;91767.78;;;8.82;73.24
52249;BME280;38541;48.130;8.378;2023-04-24T03:34:59;91771.19;;;8.82;73.61
52249;BME280;38541;48.130;8.378;2023-04-24T03:37:26;91757.84;;;8.79;73.35
52249;BME280;38541;48.130;8.378;2023-04-24T03:40:05;91769.97;;;8.69;73.26
52249;BME280;38541;48.130;8.378;2023-04-24T03:42:34;91771.75;;;8.74;73.93
52249;BME280;38541;48.130;8.378;2023-04-24T03:45:05;91774.94;;;8.71;73.23
52249;BME280;38541;48.130;8.378;2023-04-24T03:47:34;91779.72;;;8.64;73.12
52249;BME280;38541;48.130;8.378;2023-04-24T03:50:03;91768.50;;;8.58;73.52
52249;BME280;38541;48.130;8.378;2023-04-24T03:52:31;91776.84;;;8.60;73.59
52249;BME280;38541;48.130;8.378;2023-04-24T03:54:58;91772.94;;;8.57;73.19
52249;BME280;38541;48.130;8.378;2023-04-24T03:57:25;91765.28;;;8.66;73.45
52249;BME280;38541;48.130;8.378;2023-04-24T04:00:05;91771.84;;;8.64;72.65
52249;BME280;38541;48.130;8.378;2023-04-24T04:02:40;91764.03;;;8.59;73.94
52249;BME280;38541;48.130;8.378;2023-04-24T04:05:08;91769.31;;;8.48;74.20
52249;BME280;38541;48.130;8.378;2023-04-24T04:07:35;91772.72;;;8.54;73.83
52249;BME280;38541;48.130;8.378;2023-04-24T04:10:02;91770.88;;;8.54;73.93
52249;BME280;38541;48.130;8.378;2023-04-24T04:12:29;91786.59;;;8.49;74.03
52249;BME280;38541;48.130;8.378;2023-04-24T04:14:57;91784.75;;;8.55;74.84
52249;BME280;38541;48.130;8.378;2023-04-24T04:17:23;91787.78;;;8.67;74.40
52249;BME280;38541;48.130;8.378;2023-04-24T04:19:51;91798.47;;;8.76;74.48
52249;BME280;38541;48.130;8.378;2023-04-24T04:22:17;91791.16;;;8.73;74.21
52249;BME280;38541;48.130;8.378;2023-04-24T04:24:47;91842.25;;;8.65;74.28
52249;BME280;38541;48.130;8.378;2023-04-24T04:27:14;91846.06;;;7.78;71.03
52249;BME280;38541;48.130;8.378;2023-04-24T04:30:03;91840.69;;;7.33;72.28
52249;BME280;38541;48.130;8.378;2023-04-24T04:32:39;91852.22;;;7.06;73.07
52249;BME280;38541;48.130;8.378;2023-04-24T04:35:06;91857.19;;;6.92;72.72
52249;BME280;38541;48.130;8.378;2023-04-24T04:37:33;91871.50;;;6.74;74.16
52249;BME280;38541;48.130;8.378;2023-04-24T04:40:20;91857.41;;;6.64;74.80
52249;BME280;38541;48.130;8.378;2023-04-24T04:42:54;91858.19;;;6.65;75.41
52249;BME280;38541;48.130;8.378;2023-04-24T04:45:22;91858.47;;;6.63;75.44
52249;BME280;38541;48.130;8.378;2023-04-24T04:48:10;91857.41;;;6.64;75.81
52249;BME280;38541;48.130;8.378;2023-04-24T04:50:40;91865.25;;;6.64;75.77
52249;BME280;38541;48.130;8.378;2023-04-24T04:53:07;91856.63;;;6.64;75.87
52249;BME280;38541;48.130;8.378;2023-04-24T04:55:37;91862.38;;;6.76;76.25
52249;BME280;38541;48.130;8.378;2023-04-24T04:58:14;91862.91;;;6.78;76.19
52249;BME280;38541;48.130;8.378;2023-04-24T05:00:43;91865.00;;;6.76;75.71
52249;BME280;38541;48.130;8.378;2023-04-24T05:03:16;91857.13;;;6.71;76.59
52249;BME280;38541;48.130;8.378;2023-04-24T05:05:52;91872.03;;;6.81;76.88
52249;BME280;38541;48.130;8.378;2023-04-24T05:08:19;91872.84;;;6.92;76.95
52249;BME280;38541;48.130;8.378;2023-04-24T05:10:54;91879.91;;;7.02;76.31
52249;BME280;38541;48.130;8.378;2023-04-24T05:13:21;91886.16;;;7.11;76.54
52249;BME280;38541;48.130;8.378;2023-04-24T05:16:08;91885.88;;;7.18;75.81
52249;BME280;38541;48.130;8.378;2023-04-24T05:18:35;91890.84;;;7.30;76.51
52249;BME280;38541;48.130;8.378;2023-04-24T05:21:02;91901.53;;;7.28;76.06
52249;BME280;38541;48.130;8.378;2023-04-24T05:23:29;91897.38;;;7.42;75.96
52249;BME280;38541;48.130;8.378;2023-04-24T05:25:57;91899.44;;;7.56;75.88
52249;BME280;38541;48.130;8.378;2023-04-24T05:28:24;91909.88;;;7.61;75.12
52249;BME280;38541;48.130;8.378;2023-04-24T05:31:03;91906.97;;;7.73;75.13
52249;BME280;38541;48.130;8.378;2023-04-24T05:33:30;91898.00;;;8.05;75.20
52249;BME280;38541;48.130;8.378;2023-04-24T05:35:57;91887.75;;;8.19;73.88
52249;BME280;38541;48.130;8.378;2023-04-24T05:38:24;91904.19;;;8.30;74.00
52249;BME280;38541;48.130;8.378;2023-04-24T05:40:50;91891.03;;;8.46;74.57
52249;BME280;38541;48.130;8.378;2023-04-24T05:43:17;91894.19;;;8.53;73.67
52249;BME280;38541;48.130;8.378;2023-04-24T05:45:43;91914.81;;;8.60;73.42
52249;BME280;38541;48.130;8.378;2023-04-24T05:48:10;91905.88;;;8.71;74.04
52249;BME280;38541;48.130;8.378;2023-04-24T05:50:37;91901.94;;;8.74;73.63
52249;BME280;38541;48.130;8.378;2023-04-24T05:53:04;91907.13;;;8.79;72.79
52249;BME280;38541;48.130;8.378;2023-04-24T05:55:34;91913.59;;;8.92;72.92
52249;BME280;38541;48.130;8.378;2023-04-24T05:58:02;91917.84;;;8.82;72.63
52249;BME280;38541;48.130;8.378;2023-04-24T06:00:29;91928.16;;;8.63;72.06
52249;BME280;38541;48.130;8.378;2023-04-24T06:03:03;91932.13;;;8.55;72.37
52249;BME280;38541;48.130;8.378;2023-04-24T06:05:31;91944.19;;;8.51;72.87
52249;BME280;38541;48.130;8.378;2023-04-24T06:07:58;91952.06;;;8.36;73.93
52249;BME280;38541;48.130;8.378;2023-04-24T06:10:29;91956.38;;;7.85;72.31
52249;BME280;38541;48.130;8.378;2023-04-24T06:12:56;91948.84;;;7.52;71.26
52249;BME280;38541;48.130;8.378;2023-04-24T06:15:29;91951.72;;;7.46;71.19
52249;BME280;38541;48.130;8.378;2023-04-24T06:18:19;91929.50;;;7.59;70.82
52249;BME280;38541;48.130;8.378;2023-04-24T06:20:47;91929.50;;;7.64;70.14
52249;BME280;38541;48.130;8.378;2023-04-24T06:23:14;91936.53;;;7.79;71.66
52249;BME280;38541;48.130;8.378;2023-04-24T06:25:40;91937.53;;;7.93;70.71
52249;BME280;38541;48.130;8.378;2023-04-24T06:28:07;91940.69;;;7.85;70.82
52249;BME280;38541;48.130;8.378;2023-04-24T06:30:34;91933.63;;;7.91;71.06
52249;BME280;38541;48.130;8.378;2023-04-24T06:33:01;91939.63;;;7.96;71.30
52249;BME280;38541;48.130;8.378;2023-04-24T06:35:45;91937.25;;;8.05;71.39
52249;BME280;38541;48.130;8.378;2023-04-24T06:38:11;91934.91;;;8.09;71.53
52249;BME280;38541;48.130;8.378;2023-04-24T06:40:38;91937.41;;;8.35;71.87
52249;BME280;38541;48.130;8.378;2023-04-24T06:43:04;91939.22;;;8.55;71.77
52249;BME280;38541;48.130;8.378;2023-04-24T06:45:32;91944.44;;;8.50;70.60
52249;BME280;38541;48.130;8.378;2023-04-24T06:47:59;91955.19;;;8.38;69.93
52249;BME280;38541;48.130;8.378;2023-04-24T06:50:26;91942.94;;;8.28;69.68
52249;BME280;38541;48.130;8.378;2023-04-24T06:52:53;91951.31;;;8.35;69.77
52249;BME280;38541;48.130;8.378;2023-04-24T06:55:19;91955.72;;;8.40;70.00
52249;BME280;38541;48.130;8.378;2023-04-24T06:57:46;91956.50;;;8.40;69.23
52249;BME280;38541;48.130;8.378;2023-04-24T07:00:13;91956.25;;;8.37;68.74
52249;BME280;38541;48.130;8.378;2023-04-24T07:02:40;91962.59;;;8.15;69.60
52249;BME280;38541;48.130;8.378;2023-04-24T07:05:07;91968.91;;;8.04;68.49
52249;BME280;38541;48.130;8.378;2023-04-24T07:07:35;91971.28;;;7.84;69.63
52249;BME280;38541;48.130;8.378;2023-04-24T07:10:05;91974.94;;;7.99;68.81
52249;BME280;38541;48.130;8.378;2023-04-24T07:12:31;91970.94;;;8.33;70.00
52249;BME280;38541;48.130;8.378;2023-04-24T07:14:59;91975.59;;;8.41;68.81
52249;BME280;38541;48.130;8.378;2023-04-24T07:17:26;91970.44;;;8.25;68.59
52249;BME280;38541;48.130;8.378;2023-04-24T07:19:53;91985.09;;;8.26;68.18
52249;BME280;38541;48.130;8.378;2023-04-24T07:22:19;91978.06;;;8.06;67.83
52249;BME280;38541;48.130;8.378;2023-04-24T07:24:46;91971.00;;;7.96;68.57
52249;BME280;38541;48.130;8.378;2023-04-24T07:27:13;91993.53;;;7.77;67.14
52249;BME280;38541;48.130;8.378;2023-04-24T07:29:41;91984.13;;;7.60;68.77
52249;BME280;38541;48.130;8.378;2023-04-24T07:32:08;91988.81;;;7.79;68.94
52249;BME280;38541;48.130;8.378;2023-04-24T07:34:35;91986.47;;;7.98;68.40
52249;BME280;38541;48.130;8.378;2023-04-24T07:37:02;92003.44;;;7.95;67.16
52249;BME280;38541;48.130;8.378;2023-04-24T07:39:29;92004.00;;;7.87;67.23
52249;BME280;38541;48.130;8.378;2023-04-24T07:41:56;92004.00;;;7.87;67.29
52249;BME280;38541;48.130;8.378;2023-04-24T07:44:22;92015.25;;;7.77;67.19
52249;BME280;38541;48.130;8.378;2023-04-24T07:46:49;92013.41;;;7.57;66.60
52249;BME280;38541;48.130;8.378;2023-04-24T07:49:16;92017.59;;;7.58;68.36
52249;BME280;38541;48.130;8.378;2023-04-24T07:51:45;92020.19;;;7.79;67.44
52249;BME280;38541;48.130;8.378;2023-04-24T07:54:12;92025.44;;;7.89;67.57
52249;BME280;38541;48.130;8.378;2023-04-24T07:56:39;92015.44;;;8.27;67.41
52249;BME280;38541;48.130;8.378;2023-04-24T07:59:06;92027.19;;;8.35;66.76
52249;BME280;38541;48.130;8.378;2023-04-24T08:01:32;92019.06;;;8.37;67.09
52249;BME280;38541;48.130;8.378;2023-04-24T08:03:59;92035.25;;;8.65;66.38
52249;BME280;38541;48.130;8.378;2023-04-24T08:06:26;92056.75;;;8.51;65.40
52249;BME280;38541;48.130;8.378;2023-04-24T08:08:57;92043.16;;;8.23;61.91
52249;BME280;38541;48.130;8.378;2023-04-24T08:11:25;92083.47;;;8.17;61.40
52249;BME280;38541;48.130;8.378;2023-04-24T08:13:52;92076.69;;;8.06;62.26
52249;BME280;38541;48.130;8.378;2023-04-24T08:16:18;92066.22;;;7.54;61.79
52249;BME280;38541;48.130;8.378;2023-04-24T08:18:45;92051.59;;;7.74;64.18
52249;BME280;38541;48.130;8.378;2023-04-24T08:21:12;92090.28;;;8.18;62.83
52249;BME280;38541;48.130;8.378;2023-04-24T08:23:43;92052.34;;;8.10;63.83
52249;BME280;38541;48.130;8.378;2023-04-24T08:26:11;92057.31;;;8.27;61.83
52249;BME280;38541;48.130;8.378;2023-04-24T08:28:38;92048.91;;;8.36;61.78
52249;BME280;38541;48.130;8.378;2023-04-24T08:31:05;92066.69;;;8.44;61.44
52249;BME280;38541;48.130;8.378;2023-04-24T08:33:31;92079.81;;;8.18;62.33
52249;BME280;38541;48.130;8.378;2023-04-24T08:36:02;92087.13;;;7.75;63.98
52249;BME280;38541;48.130;8.378;2023-04-24T08:38:29;92088.66;;;7.45;65.99
52249;BME280;38541;48.130;8.378;2023-04-24T08:40:57;92109.72;;;7.07;67.05
52249;BME280;38541;48.130;8.378;2023-04-24T08:43:25;92103.69;;;6.96;68.60
52249;BME280;38541;48.130;8.378;2023-04-24T08:45:52;92102.09;;;6.95;70.69
52249;BME280;38541;48.130;8.378;2023-04-24T08:48:22;92105.25;;;7.02;70.13
52249;BME280;38541;48.130;8.378;2023-04-24T08:50:58;92097.50;;;7.23;69.20
52249;BME280;38541;48.130;8.378;2023-04-24T08:53:25;92107.41;;;7.26;68.44
52249;BME280;38541;48.130;8.378;2023-04-24T08:55:54;92094.06;;;7.07;69.87
52249;BME280;38541;48.130;8.378;2023-04-24T08:58:22;92095.84;;;7.01;69.92
52249;BME280;38541;48.130;8.378;2023-04-24T09:00:49;92107.88;;;7.02;70.66
52249;BME280;38541;48.130;8.378;2023-04-24T09:03:16;92130.63;;;7.07;70.55
52249;BME280;38541;48.130;8.378;2023-04-24T09:05:46;92122.94;;;6.84;69.31
52249;BME280;38541;48.130;8.378;2023-04-24T09:08:13;92122.03;;;7.11;70.59
52249;BME280;38541;48.130;8.378;2023-04-24T09:10:41;92111.66;;;7.42;68.58
52249;BME280;38541;48.130;8.378;2023-04-24T09:13:07;92108.56;;;7.66;69.28
52249;BME280;38541;48.130;8.378;2023-04-24T09:15:38;92119.56;;;7.68;67.67
52249;BME280;38541;48.130;8.378;2023-04-24T09:18:05;92118.72;;;7.47;66.51
52249;BME280;38541;48.130;8.378;2023-04-24T09:20:32;92104.41;;;7.76;67.05
52249;BME280;38541;48.130;8.378;2023-04-24T09:22:58;92123.75;;;7.80;66.02
52249;BME280;38541;48.130;8.378;2023-04-24T09:25:32;92122.19;;;8.05;65.44
52249;BME280;38541;48.130;8.378;2023-04-24T09:28:01;92126.38;;;8.00;64.42
52249;BME280;38541;48.130;8.378;2023-04-24T09:30:29;92124.03;;;8.30;65.52
52249;BME280;38541;48.130;8.378;2023-04-24T09:33:10;92127.97;;;8.53;66.02
52249;BME280;38541;48.130;8.378;2023-04-24T09:35:40;92145.75;;;8.62;63.42
52249;BME280;38541;48.130;8.378;2023-04-24T09:38:07;92129.25;;;8.30;63.22
52249;BME280;38541;48.130;8.378;2023-04-24T09:40:34;92122.19;;;8.36;63.53
52249;BME280;38541;48.130;8.378;2023-04-24T09:43:01;92130.56;;;8.69;65.13
52249;BME280;38541;48.130;8.378;2023-04-24T09:45:35;92139.47;;;8.68;62.93
52249;BME280;38541;48.130;8.378;2023-04-24T09:48:02;92129.53;;;8.54;65.90
52249;BME280;38541;48.130;8.378;2023-04-24T09:50:32;92142.34;;;8.66;64.35
52249;BME280;38541;48.130;8.378;2023-04-24T09:53:02;92150.47;;;8.34;65.51
52249;BME280;38541;48.130;8.378;2023-04-24T09:55:31;92154.91;;;7.97;65.86
52249;BME280;38541;48.130;8.378;2023-04-24T09:57:59;92159.31;;;7.86;65.39
52249;BME280;38541;48.130;8.378;2023-04-24T10:00:32;92168.75;;;7.97;64.00
52249;BME280;38541;48.130;8.378;2023-04-24T10:03:00;92175.81;;;7.92;62.85
52249;BME280;38541;48.130;8.378;2023-04-24T10:05:32;92178.72;;;8.11;60.57
52249;BME280;38541;48.130;8.378;2023-04-24T10:08:07;92174.53;;;8.25;61.97
52249;BME280;38541;48.130;8.378;2023-04-24T10:10:38;92178.72;;;8.32;62.17
52249;BME280;38541;48.130;8.378;2023-04-24T10:13:05;92167.75;;;8.50;63.55
52249;BME280;38541;48.130;8.378;2023-04-24T10:15:34;92164.84;;;8.26;64.33
52249;BME280;38541;48.130;8.378;2023-04-24T10:18:01;92168.78;;;8.49;63.75
52249;BME280;38541;48.130;8.378;2023-04-24T10:20:29;92168.78;;;8.39;61.54
52249;BME280;38541;48.130;8.378;2023-04-24T10:22:57;92169.31;;;8.46;59.76
52249;BME280;38541;48.130;8.378;2023-04-24T10:25:26;92163.72;;;9.05;60.85
52249;BME280;38541;48.130;8.378;2023-04-24T10:27:53;92177.81;;;9.30;55.08
52249;BME280;38541;48.130;8.378;2023-04-24T10:30:23;92177.81;;;9.24;55.28
52249;BME280;38541;48.130;8.378;2023-04-24T10:32:50;92183.38;;;9.07;57.00
52249;BME280;38541;48.130;8.378;2023-04-24T10:35:17;92182.34;;;8.98;56.42
52249;BME280;38541;48.130;8.378;2023-04-24T10:38:06;92183.13;;;9.04;57.15
52249;BME280;38541;48.130;8.378;2023-04-24T10:40:35;92189.19;;;8.89;57.19
52249;BME280;38541;48.130;8.378;2023-04-24T10:43:04;92205.59;;;9.31;54.47
52249;BME280;38541;48.130;8.378;2023-04-24T10:45:32;92184.56;;;9.51;57.05
52249;BME280;38541;48.130;8.378;2023-04-24T10:48:01;92188.25;;;10.40;56.18
52249;BME280;38541;48.130;8.378;2023-04-24T10:50:57;92186.66;;;10.39;51.27
52249;BME280;38541;48.130;8.378;2023-04-24T10:53:28;92202.13;;;9.46;50.28
52249;BME280;38541;48.130;8.378;2023-04-24T10:56:03;92203.50;;;9.22;51.79
52249;BME280;38541;48.130;8.378;2023-04-24T11:01:04;92198.97;;;9.49;51.26
52249;BME280;38541;48.130;8.378;2023-04-24T11:03:32;92196.66;;;9.37;53.09
52249;BME280;38541;48.130;8.378;2023-04-24T11:06:06;92199.59;;;9.14;51.88
52249;BME280;38541;48.130;8.378;2023-04-24T11:08:38;92202.56;;;9.68;53.68
52249;BME280;38541;48.130;8.378;2023-04-24T11:11:13;92217.66;;;9.92;53.79
52249;BME280;38541;48.130;8.378;2023-04-24T11:16:53;92201.84;;;10.08;50.63
52249;BME280;38541;48.130;8.378;2023-04-24T11:19:23;92207.59;;;10.10;49.86
52249;BME280;38541;48.130;8.378;2023-04-24T11:22:03;92212.78;;;10.20;49.63
52249;BME280;38541;48.130;8.378;2023-04-24T11:24:39;92206.78;;;10.14;49.18
52249;BME280;38541;48.130;8.378;2023-04-24T11:27:20;92219.56;;;9.81;48.58
52249;BME280;38541;48.130;8.378;2023-04-24T11:32:27;92212.69;;;10.36;47.10
52249;BME280;38541;48.130;8.378;2023-04-24T11:34:55;92234.47;;;10.36;48.18
52249;BME280;38541;48.130;8.378;2023-04-24T11:37:23;92217.63;;;10.03;48.27
52249;BME280;38541;48.130;8.378;2023-04-24T11:39:52;92238.84;;;10.56;48.34
52249;BME280;38541;48.130;8.378;2023-04-24T11:42:20;92225.09;;;10.65;46.79
52249;BME280;38541;48.130;8.378;2023-04-24T11:44:52;92227.09;;;10.78;45.50
52249;BME280;38541;48.130;8.378;2023-04-24T11:47:19;92227.09;;;10.78;45.26
52249;BME280;38541;48.130;8.378;2023-04-24T11:49:45;92241.44;;;10.91;46.36
52249;BME280;38541;48.130;8.378;2023-04-24T11:52:15;92230.16;;;10.91;47.93
52249;BME280;38541;48.130;8.378;2023-04-24T11:54:49;92246.34;;;11.57;48.51
52249;BME280;38541;48.130;8.378;2023-04-24T11:57:19;92233.94;;;10.79;48.33
52249;BME280;38541;48.130;8.378;2023-04-24T11:59:48;92228.03;;;10.93;48.16
52249;BME280;38541;48.130;8.378;2023-04-24T12:02:24;92228.25;;;11.26;47.15
52249;BME280;38541;48.130;8.378;2023-04-24T12:04:55;92219.78;;;12.21;47.63
52249;BME280;38541;48.130;8.378;2023-04-24T12:07:23;92222.25;;;11.45;46.87
52249;BME280;38541;48.130;8.378;2023-04-24T12:09:57;92222.81;;;11.17;46.12
52249;BME280;38541;48.130;8.378;2023-04-24T12:12:28;92216.91;;;11.55;46.09
52249;BME280;38541;48.130;8.378;2023-04-24T12:14:58;92232.50;;;10.92;45.33
52249;BME280;38541;48.130;8.378;2023-04-24T12:17:29;92212.84;;;10.84;47.55
52249;BME280;38541;48.130;8.378;2023-04-24T12:20:04;92221.81;;;11.37;48.17
52249;BME280;38541;48.130;8.378;2023-04-24T12:22:52;92223.25;;;11.73;45.59
52249;BME280;38541;48.130;8.378;2023-04-24T12:25:22;92221.25;;;11.89;45.33
52249;BME280;38541;48.130;8.378;2023-04-24T12:30:50;92209.31;;;11.97;44.73
52249;BME280;38541;48.130;8.378;2023-04-24T12:33:21;92209.00;;;11.98;46.47
52249;BME280;38541;48.130;8.378;2023-04-24T12:35:48;92222.28;;;12.32;44.32
52249;BME280;38541;48.130;8.378;2023-04-24T12:38:22;92226.84;;;12.07;44.07
52249;BME280;38541;48.130;8.378;2023-04-24T12:41:09;92222.25;;;11.45;46.80
52249;BME280;38541;48.130;8.378;2023-04-24T12:43:36;92233.16;;;11.38;46.03
52249;BME280;38541;48.130;8.378;2023-04-24T12:46:04;92224.94;;;11.15;46.66
52249;BME280;38541;48.130;8.378;2023-04-24T12:48:31;92230.63;;;11.52;47.12
52249;BME280;38541;48.130;8.378;2023-04-24T12:50:58;92232.69;;;12.04;44.81
52249;BME280;38541;48.130;8.378;2023-04-24T12:53:28;92224.97;;;11.64;46.25
52249;BME280;38541;48.130;8.378;2023-04-24T12:55:56;92230.75;;;11.12;47.32
52249;BME280;38541;48.130;8.378;2023-04-24T12:58:22;92225.81;;;10.76;48.74
52249;BME280;38541;48.130;8.378;2023-04-24T13:00:49;92225.34;;;11.76;46.66
52249;BME280;38541;48.130;8.378;2023-04-24T13:03:15;92230.09;;;11.25;48.25
52249;BME280;38541;48.130;8.378;2023-04-24T13:05:42;92241.44;;;10.91;48.20
52249;BME280;38541;48.130;8.378;2023-04-24T13:08:09;92236.97;;;10.17;49.18
52249;BME280;38541;48.130;8.378;2023-04-24T13:10:36;92242.78;;;10.09;51.07
52249;BME280;38541;48.130;8.378;2023-04-24T13:13:02;92242.03;;;9.98;50.28
52249;BME280;38541;48.130;8.378;2023-04-24T13:15:29;92253.34;;;9.98;49.80
52249;BME280;38541;48.130;8.378;2023-04-24T13:17:56;92243.50;;;9.64;50.43
52249;BME280;38541;48.130;8.378;2023-04-24T13:20:22;92240.72;;;10.01;51.52
52249;BME280;38541;48.130;8.378;2023-04-24T13:22:49;92240.72;;;10.01;50.70
52249;BME280;38541;48.130;8.378;2023-04-24T13:25:15;92255.81;;;10.24;49.42
52249;BME280;38541;48.130;8.378;2023-04-24T13:27:43;92238.72;;;10.72;50.81
52249;BME280;38541;48.130;8.378;2023-04-24T13:30:10;92233.84;;;11.44;48.91